Time;durP1;ratioP1;P1;durP2;ratioP2;P2;SDS_P1;SDS_P2;PMS_P1;PMS_P2;Temp;Humidity;BMP_temperature;BMP_pressure;BME280_temperature;BME280_humidity;BME280_pressure;Samples;Min_cycle;Max_cycle;Signal;HPM_P1;HPM_P2
2022/10/19 00:01:13;;;;;;;8.33;4.67;;;;;;;;;;5051884;28;20317;-41
2022/10/19 00:03:41;;;;;;;6.63;4.60;;;;;;;;;;5049055;28;20213;-41
2022/10/19 00:06:13;;;;;;;11.60;5.30;;;;;;;;;;5051349;28;20232;-41
2022/10/19 00:08:41;;;;;;;10.17;5.13;;;;;;;;;;5068387;28;20215;-38
2022/10/19 00:11:08;;;;;;;14.53;5.60;;;;;;;;;;5062184;28;20218;-38
2022/10/19 00:13:35;;;;;;;12.30;4.80;;;;;;;;;;5048374;28;20213;-43
2022/10/19 00:16:02;;;;;;;14.83;5.30;;;;;;;;;;5059296;28;20220;-37
2022/10/19 00:18:29;;;;;;;10.93;5.47;;;;;;;;;;5045885;28;20209;-38
2022/10/19 00:21:03;;;;;;;27.47;4.40;;;;;;;;;;5060110;28;20232;-40
2022/10/19 00:23:32;;;;;;;8.60;3.77;;;;;;;;;;5058197;28;20206;-38
2022/10/19 00:25:59;;;;;;;17.87;4.77;;;;;;;;;;5049220;28;20304;-35
2022/10/19 00:28:27;;;;;;;10.03;4.97;;;;;;;;;;5050396;28;20193;-38
2022/10/19 00:30:54;;;;;;;9.73;5.37;;;;;;;;;;5063968;28;20221;-37
2022/10/19 00:33:21;;;;;;;9.20;4.70;;;;;;;;;;5057855;28;20201;-39
2022/10/19 00:35:49;;;;;;;5.50;4.00;;;;;;;;;;5061736;28;20213;-37
2022/10/19 00:38:17;;;;;;;6.10;3.87;;;;;;;;;;5070930;28;20205;-34
2022/10/19 00:40:45;;;;;;;8.17;3.77;;;;;;;;;;5071147;28;20313;-42
2022/10/19 00:43:15;;;;;;;8.00;4.07;;;;;;;;;;5055701;28;20203;-35
2022/10/19 00:45:42;;;;;;;7.43;4.00;;;;;;;;;;5053484;28;20228;-37
2022/10/19 00:48:10;;;;;;;5.33;3.87;;;;;;;;;;5054572;28;20206;-36
2022/10/19 00:50:37;;;;;;;8.53;4.00;;;;;;;;;;5047204;28;20229;-38
2022/10/19 00:53:04;;;;;;;7.73;4.50;;;;;;;;;;5050346;28;20201;-43
2022/10/19 00:55:31;;;;;;;5.63;3.83;;;;;;;;;;5050448;28;20220;-36
2022/10/19 00:58:00;;;;;;;8.47;4.77;;;;;;;;;;5037186;28;20209;-37
2022/10/19 01:00:28;;;;;;;7.97;4.67;;;;;;;;;;5044361;28;20227;-38
2022/10/19 01:02:55;;;;;;;6.33;4.10;;;;;;;;;;5033178;28;20202;-36
2022/10/19 01:05:22;;;;;;;8.40;4.33;;;;;;;;;;5050766;28;20248;-43
2022/10/19 01:07:50;;;;;;;7.47;4.10;;;;;;;;;;5065187;28;20198;-35
2022/10/19 01:10:17;;;;;;;8.03;3.93;;;;;;;;;;5048818;28;20226;-39
2022/10/19 01:12:54;;;;;;;7.97;3.70;;;;;;;;;;5049874;28;20214;-40
2022/10/19 01:15:28;;;;;;;12.10;4.50;;;;;;;;;;5049999;28;20205;-36
2022/10/19 01:17:59;;;;;;;5.23;3.67;;;;;;;;;;5047066;28;20198;-36
2022/10/19 01:20:33;;;;;;;4.70;3.70;;;;;;;;;;5054816;28;20226;-38
2022/10/19 01:23:07;;;;;;;8.47;4.53;;;;;;;;;;5058207;28;20212;-38
2022/10/19 01:25:39;;;;;;;5.07;3.43;;;;;;;;;;5043544;28;20302;-40
2022/10/19 01:28:16;;;;;;;3.90;3.50;;;;;;;;;;5046929;28;20211;-37
2022/10/19 01:30:48;;;;;;;4.77;3.60;;;;;;;;;;5069528;28;20225;-36
2022/10/19 01:33:22;;;;;;;10.73;4.17;;;;;;;;;;5051348;28;20198;-40
2022/10/19 01:35:53;;;;;;;7.53;3.87;;;;;;;;;;5050754;28;20201;-44
2022/10/19 01:38:24;;;;;;;8.90;4.40;;;;;;;;;;5062286;28;20210;-37
2022/10/19 01:40:54;;;;;;;5.17;3.57;;;;;;;;;;5069775;28;20240;-42
2022/10/19 01:43:24;;;;;;;6.77;3.80;;;;;;;;;;5037020;28;20272;-36
2022/10/19 01:45:55;;;;;;;6.90;3.53;;;;;;;;;;5057542;28;20233;-34
2022/10/19 01:48:23;;;;;;;7.97;3.77;;;;;;;;;;5044075;28;20212;-35
2022/10/19 01:50:53;;;;;;;7.63;3.53;;;;;;;;;;5057836;28;20248;-33
2022/10/19 01:53:21;;;;;;;9.10;4.50;;;;;;;;;;5069531;28;20228;-38
2022/10/19 01:55:49;;;;;;;5.13;3.87;;;;;;;;;;5069792;28;20220;-33
2022/10/19 01:58:18;;;;;;;11.33;4.10;;;;;;;;;;5047722;28;20316;-38
2022/10/19 02:00:46;;;;;;;6.50;3.60;;;;;;;;;;5048980;28;20222;-42
2022/10/19 02:03:16;;;;;;;6.07;3.53;;;;;;;;;;5055783;28;20218;-39
2022/10/19 02:05:44;;;;;;;9.57;4.50;;;;;;;;;;5033041;28;20226;-40
2022/10/19 02:08:13;;;;;;;6.77;4.10;;;;;;;;;;5045061;28;20205;-38
2022/10/19 02:10:42;;;;;;;8.67;4.10;;;;;;;;;;5049205;28;20228;-43
2022/10/19 02:13:10;;;;;;;8.30;4.37;;;;;;;;;;5046986;28;20230;-38
2022/10/19 02:15:38;;;;;;;8.80;4.00;;;;;;;;;;5051437;28;20206;-39
2022/10/19 02:18:06;;;;;;;4.33;3.67;;;;;;;;;;5044358;28;20213;-41
2022/10/19 02:20:36;;;;;;;13.90;3.87;;;;;;;;;;5042490;28;20253;-41
2022/10/19 02:23:04;;;;;;;4.30;3.60;;;;;;;;;;5059828;28;20211;-39
2022/10/19 02:25:31;;;;;;;7.67;3.90;;;;;;;;;;5048343;28;20249;-37
2022/10/19 02:27:58;;;;;;;5.33;4.17;;;;;;;;;;5043202;28;20206;-38
2022/10/19 02:30:25;;;;;;;15.33;4.53;;;;;;;;;;5061691;28;20217;-39
2022/10/19 02:32:53;;;;;;;6.67;3.90;;;;;;;;;;5060112;28;20199;-43
2022/10/19 02:35:21;;;;;;;12.83;3.90;;;;;;;;;;5039121;28;20198;-42
2022/10/19 02:37:50;;;;;;;10.87;4.03;;;;;;;;;;5065009;28;20204;-42
2022/10/19 02:40:17;;;;;;;8.00;3.80;;;;;;;;;;5051231;28;20221;-33
2022/10/19 02:42:47;;;;;;;5.13;3.93;;;;;;;;;;5043287;28;20203;-38
2022/10/19 02:45:19;;;;;;;5.70;3.90;;;;;;;;;;5053718;28;20221;-38
2022/10/19 02:47:49;;;;;;;5.63;4.33;;;;;;;;;;5061653;28;20213;-38
2022/10/19 02:50:16;;;;;;;4.43;4.03;;;;;;;;;;5039988;28;20232;-37
2022/10/19 02:52:43;;;;;;;7.17;4.20;;;;;;;;;;5067999;28;20197;-40
2022/10/19 02:55:12;;;;;;;7.90;4.40;;;;;;;;;;5072361;28;20213;-38
2022/10/19 02:57:39;;;;;;;15.57;5.00;;;;;;;;;;5056005;28;20300;-32
2022/10/19 03:00:08;;;;;;;6.87;5.20;;;;;;;;;;5061561;28;20227;-44
2022/10/19 03:02:35;;;;;;;8.93;4.43;;;;;;;;;;5058821;28;20264;-34
2022/10/19 03:05:02;;;;;;;6.37;4.20;;;;;;;;;;5045908;28;20213;-41
2022/10/19 03:07:29;;;;;;;5.27;3.67;;;;;;;;;;5069007;28;20215;-40
2022/10/19 03:09:56;;;;;;;5.57;3.70;;;;;;;;;;5076431;28;20229;-39
2022/10/19 03:12:24;;;;;;;5.57;5.07;;;;;;;;;;5068471;28;20210;-36
2022/10/19 03:14:52;;;;;;;4.20;3.70;;;;;;;;;;5041984;28;20221;-37
2022/10/19 03:17:19;;;;;;;5.90;3.80;;;;;;;;;;5048752;28;20200;-38
2022/10/19 03:19:46;;;;;;;5.50;4.30;;;;;;;;;;5041744;28;20225;-38
2022/10/19 03:22:14;;;;;;;4.90;4.40;;;;;;;;;;5063819;28;20273;-38
2022/10/19 03:24:41;;;;;;;6.07;4.33;;;;;;;;;;5053262;28;20212;-40
2022/10/19 03:27:08;;;;;;;4.80;4.30;;;;;;;;;;5053722;28;20225;-40
2022/10/19 03:29:36;;;;;;;8.73;4.40;;;;;;;;;;5046148;28;20202;-42
2022/10/19 03:32:04;;;;;;;5.63;5.00;;;;;;;;;;5070763;28;20211;-35
2022/10/19 03:34:31;;;;;;;6.10;4.13;;;;;;;;;;5052631;28;20201;-39
2022/10/19 03:36:58;;;;;;;4.20;3.77;;;;;;;;;;5062070;28;20204;-40
2022/10/19 03:39:25;;;;;;;4.83;4.30;;;;;;;;;;5070934;28;20206;-40
2022/10/19 03:41:53;;;;;;;7.57;4.57;;;;;;;;;;5047820;28;20555;-41
2022/10/19 03:44:20;;;;;;;5.90;4.17;;;;;;;;;;5048861;28;20209;-40
2022/10/19 03:46:48;;;;;;;4.50;4.10;;;;;;;;;;5068085;28;20286;-35
2022/10/19 03:49:16;;;;;;;6.67;4.57;;;;;;;;;;5049868;28;20217;-40
2022/10/19 03:51:43;;;;;;;10.80;4.30;;;;;;;;;;5068591;28;20232;-43
2022/10/19 03:54:13;;;;;;;11.97;4.53;;;;;;;;;;5065575;28;20217;-40
2022/10/19 03:56:40;;;;;;;9.67;4.80;;;;;;;;;;5052710;28;20189;-40
2022/10/19 03:59:08;;;;;;;14.10;4.33;;;;;;;;;;5043785;28;20274;-37
2022/10/19 04:01:37;;;;;;;6.20;4.50;;;;;;;;;;5049127;28;20225;-37
2022/10/19 04:04:06;;;;;;;6.17;3.90;;;;;;;;;;5044592;28;20206;-36
2022/10/19 04:06:35;;;;;;;6.23;3.97;;;;;;;;;;5056140;28;20232;-41
2022/10/19 04:09:02;;;;;;;12.93;4.23;;;;;;;;;;5071236;28;20208;-35
2022/10/19 04:11:32;;;;;;;5.40;3.70;;;;;;;;;;5061079;28;20230;-41
2022/10/19 04:13:59;;;;;;;6.70;3.67;;;;;;;;;;5058246;28;20206;-37
2022/10/19 04:16:27;;;;;;;4.67;4.20;;;;;;;;;;5058185;28;20573;-40
2022/10/19 04:18:55;;;;;;;5.80;4.67;;;;;;;;;;5038947;28;20210;-40
2022/10/19 04:21:24;;;;;;;4.13;3.80;;;;;;;;;;5054934;28;20225;-39
2022/10/19 04:23:52;;;;;;;9.73;3.90;;;;;;;;;;5048441;28;20234;-39
2022/10/19 04:26:20;;;;;;;8.13;3.70;;;;;;;;;;5046165;28;20218;-34
2022/10/19 04:28:47;;;;;;;7.07;3.67;;;;;;;;;;5069603;28;20205;-40
2022/10/19 04:31:14;;;;;;;6.10;4.27;;;;;;;;;;5073862;28;20230;-39
2022/10/19 04:33:42;;;;;;;5.47;3.83;;;;;;;;;;5056892;28;20201;-35
2022/10/19 04:36:12;;;;;;;5.57;3.77;;;;;;;;;;5049250;28;20202;-41
2022/10/19 04:38:41;;;;;;;3.97;3.63;;;;;;;;;;5071420;28;20201;-39
2022/10/19 04:41:09;;;;;;;16.53;3.93;;;;;;;;;;5070695;28;20247;-40
2022/10/19 04:43:37;;;;;;;4.10;3.70;;;;;;;;;;5052042;28;20205;-44
2022/10/19 04:46:05;;;;;;;4.90;3.83;;;;;;;;;;5060085;28;20213;-38
2022/10/19 04:48:32;;;;;;;5.07;3.57;;;;;;;;;;5047603;28;20212;-42
2022/10/19 04:50:59;;;;;;;3.97;3.57;;;;;;;;;;5062205;28;20221;-36
2022/10/19 04:53:38;;;;;;;4.97;3.27;;;;;;;;;;5073018;28;20212;-32
2022/10/19 04:56:07;;;;;;;4.20;3.80;;;;;;;;;;5071914;28;20309;-39
2022/10/19 04:58:34;;;;;;;6.23;3.87;;;;;;;;;;5041687;28;20208;-40
2022/10/19 05:01:07;;;;;;;4.30;3.20;;;;;;;;;;5050934;28;20321;-35
2022/10/19 05:03:34;;;;;;;13.17;4.30;;;;;;;;;;5050732;28;20209;-38
2022/10/19 05:06:01;;;;;;;4.53;3.60;;;;;;;;;;5048667;28;20222;-38
2022/10/19 05:08:28;;;;;;;3.53;2.90;;;;;;;;;;5070524;28;20205;-38
2022/10/19 05:10:55;;;;;;;4.17;3.77;;;;;;;;;;5070471;28;20236;-41
2022/10/19 05:13:24;;;;;;;5.10;4.07;;;;;;;;;;5055106;28;20204;-37
2022/10/19 05:15:56;;;;;;;3.77;3.47;;;;;;;;;;5044442;28;20299;-42
2022/10/19 05:18:23;;;;;;;6.83;3.53;;;;;;;;;;5045370;28;20213;-40
2022/10/19 05:20:50;;;;;;;4.17;3.43;;;;;;;;;;5051132;28;20231;-37
2022/10/19 05:23:17;;;;;;;8.17;3.87;;;;;;;;;;5042807;28;20213;-37
2022/10/19 05:25:44;;;;;;;6.37;4.27;;;;;;;;;;5047673;28;20208;-38
2022/10/19 05:28:11;;;;;;;5.60;4.10;;;;;;;;;;5068895;28;20206;-38
2022/10/19 05:30:40;;;;;;;5.90;4.23;;;;;;;;;;5040869;28;20224;-42
2022/10/19 05:33:07;;;;;;;7.07;4.00;;;;;;;;;;5053902;28;20199;-39
2022/10/19 05:35:34;;;;;;;4.90;4.43;;;;;;;;;;5046606;28;20238;-39
2022/10/19 05:38:01;;;;;;;6.47;4.80;;;;;;;;;;5067174;28;20197;-43
2022/10/19 05:40:28;;;;;;;6.33;4.43;;;;;;;;;;5063154;28;20233;-38
2022/10/19 05:42:55;;;;;;;7.57;4.90;;;;;;;;;;5044570;28;20275;-39
2022/10/19 05:45:22;;;;;;;14.93;5.53;;;;;;;;;;5044229;28;20324;-34
2022/10/19 05:47:51;;;;;;;6.10;4.60;;;;;;;;;;5048467;28;20227;-34
2022/10/19 05:50:18;;;;;;;10.33;5.53;;;;;;;;;;5054547;28;20221;-43
2022/10/19 05:52:45;;;;;;;12.10;4.80;;;;;;;;;;5072722;28;20205;-41
2022/10/19 05:55:13;;;;;;;8.40;4.57;;;;;;;;;;5320506;22;20444;-31
2022/10/19 05:57:40;;;;;;;7.23;4.37;;;;;;;;;;5065682;28;20287;-29
2022/10/19 06:00:07;;;;;;;7.20;5.43;;;;;;;;;;5070464;28;20212;-29
2022/10/19 06:02:34;;;;;;;8.03;5.20;;;;;;;;;;5072407;28;20628;-36
2022/10/19 06:05:03;;;;;;;7.77;5.17;;;;;;;;;;5071962;28;20201;-31
2022/10/19 06:07:30;;;;;;;9.87;5.10;;;;;;;;;;5079757;28;20221;-28
2022/10/19 06:09:57;;;;;;;5.40;4.73;;;;;;;;;;5072998;28;20396;-31
2022/10/19 06:12:24;;;;;;;7.20;4.87;;;;;;;;;;5067131;28;20205;-31
2022/10/19 06:14:51;;;;;;;5.83;4.57;;;;;;;;;;5060697;28;20198;-31
2022/10/19 06:17:18;;;;;;;7.10;4.50;;;;;;;;;;5083509;28;20200;-29
2022/10/19 06:19:46;;;;;;;9.07;5.10;;;;;;;;;;5060892;28;20225;-31
2022/10/19 06:22:14;;;;;;;10.70;4.90;;;;;;;;;;5081768;28;20205;-30
2022/10/19 06:24:41;;;;;;;7.33;5.47;;;;;;;;;;5092231;28;20204;-33
2022/10/19 06:27:08;;;;;;;6.10;4.50;;;;;;;;;;5084835;28;20316;-32
2022/10/19 06:29:36;;;;;;;6.27;4.40;;;;;;;;;;5071813;28;20212;-32
2022/10/19 06:32:03;;;;;;;8.40;4.97;;;;;;;;;;5084274;28;20426;-31
2022/10/19 06:34:30;;;;;;;8.53;5.43;;;;;;;;;;5070572;28;20218;-31
2022/10/19 06:36:57;;;;;;;7.33;4.10;;;;;;;;;;5080582;28;20208;-31
2022/10/19 06:39:25;;;;;;;8.07;4.10;;;;;;;;;;5083834;28;20203;-31
2022/10/19 06:41:52;;;;;;;6.30;5.20;;;;;;;;;;5068907;28;20236;-32
2022/10/19 06:44:20;;;;;;;5.47;4.33;;;;;;;;;;5076902;28;20201;-32
2022/10/19 06:46:47;;;;;;;7.80;4.80;;;;;;;;;;5080565;28;20217;-33
2022/10/19 06:49:14;;;;;;;10.23;4.60;;;;;;;;;;5069283;28;20582;-32
2022/10/19 06:51:41;;;;;;;7.33;4.70;;;;;;;;;;5086440;28;20220;-30
2022/10/19 06:54:08;;;;;;;10.60;4.97;;;;;;;;;;5095902;28;20287;-31
2022/10/19 06:56:37;;;;;;;10.60;5.77;;;;;;;;;;5088334;28;20206;-32
2022/10/19 06:59:04;;;;;;;8.23;5.00;;;;;;;;;;5073042;28;20254;-29
2022/10/19 07:01:31;;;;;;;7.93;4.43;;;;;;;;;;5080321;28;20224;-28
2022/10/19 07:03:58;;;;;;;7.47;5.17;;;;;;;;;;5083176;28;20209;-31
2022/10/19 07:06:27;;;;;;;4.83;4.20;;;;;;;;;;5079252;28;20208;-30
2022/10/19 07:08:54;;;;;;;9.67;6.00;;;;;;;;;;5087116;28;20209;-31
2022/10/19 07:11:22;;;;;;;6.07;4.60;;;;;;;;;;5073562;28;20231;-29
2022/10/19 07:13:50;;;;;;;8.73;5.20;;;;;;;;;;5070704;28;20205;-33
2022/10/19 07:16:18;;;;;;;7.00;4.80;;;;;;;;;;5074540;28;20201;-31
2022/10/19 07:18:45;;;;;;;5.33;4.27;;;;;;;;;;5070519;28;20209;-32
2022/10/19 07:21:14;;;;;;;10.93;5.50;;;;;;;;;;5077532;28;20228;-36
2022/10/19 07:23:42;;;;;;;9.97;4.63;;;;;;;;;;5080159;28;20198;-31
2022/10/19 07:26:11;;;;;;;5.97;5.20;;;;;;;;;;5075305;28;20222;-31
2022/10/19 07:28:38;;;;;;;5.43;4.93;;;;;;;;;;5061966;28;20206;-32
2022/10/19 07:31:08;;;;;;;8.43;5.07;;;;;;;;;;5068900;28;20235;-29
2022/10/19 07:33:35;;;;;;;9.47;5.50;;;;;;;;;;5081131;28;20212;-33
2022/10/19 07:36:03;;;;;;;6.17;4.77;;;;;;;;;;5074508;28;20215;-31
2022/10/19 07:38:31;;;;;;;7.97;4.50;;;;;;;;;;5074622;28;20204;-30
2022/10/19 07:41:01;;;;;;;5.97;4.40;;;;;;;;;;5074956;28;20229;-32
2022/10/19 07:43:28;;;;;;;8.00;5.10;;;;;;;;;;5062718;28;20203;-33
2022/10/19 07:45:58;;;;;;;6.97;5.13;;;;;;;;;;5074382;28;20201;-34
2022/10/19 07:48:27;;;;;;;7.23;4.70;;;;;;;;;;5084261;28;20629;-28
2022/10/19 07:50:54;;;;;;;6.43;4.40;;;;;;;;;;5075692;28;20312;-30
2022/10/19 07:53:21;;;;;;;4.40;3.87;;;;;;;;;;5071944;28;20202;-29
2022/10/19 07:55:48;;;;;;;6.93;4.90;;;;;;;;;;5068164;28;20213;-33
2022/10/19 07:58:15;;;;;;;13.77;6.03;;;;;;;;;;5065060;28;20286;-32
2022/10/19 08:00:43;;;;;;;8.97;5.37;;;;;;;;;;5083416;28;20231;-34
2022/10/19 08:03:10;;;;;;;7.57;5.40;;;;;;;;;;5072217;28;20212;-32
2022/10/19 08:05:38;;;;;;;8.90;5.13;;;;;;;;;;5071194;28;20208;-32
2022/10/19 08:08:05;;;;;;;7.33;5.23;;;;;;;;;;5066059;28;20225;-31
2022/10/19 08:10:33;;;;;;;6.70;5.60;;;;;;;;;;5064105;28;20221;-35
2022/10/19 08:13:00;;;;;;;8.53;5.50;;;;;;;;;;5059080;28;20212;-32
2022/10/19 08:15:29;;;;;;;6.63;4.80;;;;;;;;;;5069166;28;20201;-30
2022/10/19 08:17:56;;;;;;;14.60;5.13;;;;;;;;;;5062586;28;20198;-31
2022/10/19 08:20:23;;;;;;;10.43;6.13;;;;;;;;;;5063969;28;20235;-32
2022/10/19 08:22:52;;;;;;;6.17;4.90;;;;;;;;;;5075872;28;20205;-34
2022/10/19 08:25:19;;;;;;;10.67;5.87;;;;;;;;;;5069456;28;20202;-28
2022/10/19 08:27:46;;;;;;;11.47;6.40;;;;;;;;;;5063298;28;20674;-29
2022/10/19 08:30:13;;;;;;;11.23;6.50;;;;;;;;;;5072443;28;20271;-28
2022/10/19 08:32:40;;;;;;;10.93;5.83;;;;;;;;;;5066393;28;20209;-31
2022/10/19 08:35:08;;;;;;;11.03;6.07;;;;;;;;;;5067238;28;20206;-33
2022/10/19 08:37:35;;;;;;;9.37;5.87;;;;;;;;;;5068286;28;20400;-32
2022/10/19 08:40:04;;;;;;;7.90;5.50;;;;;;;;;;5069171;28;20228;-35
2022/10/19 08:42:34;;;;;;;6.57;5.60;;;;;;;;;;5066728;28;20206;-34
2022/10/19 08:45:16;;;;;;;6.57;5.53;;;;;;;;;;5061633;28;20212;-33
2022/10/19 08:47:47;;;;;;;10.20;5.80;;;;;;;;;;5073378;28;20244;-33
2022/10/19 08:50:19;;;;;;;8.57;5.53;;;;;;;;;;5071774;28;20229;-30
2022/10/19 08:52:48;;;;;;;6.83;5.47;;;;;;;;;;5075212;28;20201;-34
2022/10/19 08:55:20;;;;;;;8.23;5.57;;;;;;;;;;5069159;28;20228;-32
2022/10/19 08:57:51;;;;;;;8.13;5.83;;;;;;;;;;5064621;28;20291;-32
2022/10/19 09:00:20;;;;;;;12.10;5.20;;;;;;;;;;5067289;28;20228;-33
2022/10/19 09:02:54;;;;;;;9.77;5.30;;;;;;;;;;5066107;28;20201;-34
2022/10/19 09:05:24;;;;;;;8.30;5.20;;;;;;;;;;5068499;28;20195;-35
2022/10/19 09:07:52;;;;;;;6.93;4.93;;;;;;;;;;5063915;28;20236;-32
2022/10/19 09:10:23;;;;;;;5.23;4.37;;;;;;;;;;5067925;28;20225;-31
2022/10/19 09:12:54;;;;;;;7.17;4.30;;;;;;;;;;5067963;28;20208;-30
2022/10/19 09:15:26;;;;;;;4.67;4.00;;;;;;;;;;5079009;28;20196;-36
2022/10/19 09:17:53;;;;;;;6.63;3.97;;;;;;;;;;5063496;28;20201;-33
2022/10/19 09:20:21;;;;;;;5.50;3.97;;;;;;;;;;5067883;28;20223;-33
2022/10/19 09:22:51;;;;;;;4.53;3.33;;;;;;;;;;5071131;28;20213;-33
2022/10/19 09:25:19;;;;;;;4.23;3.43;;;;;;;;;;5066040;28;20207;-29
2022/10/19 09:27:48;;;;;;;4.10;3.40;;;;;;;;;;5058720;28;20228;-32
2022/10/19 09:30:18;;;;;;;5.83;3.83;;;;;;;;;;5078601;28;20232;-33
2022/10/19 09:32:45;;;;;;;4.27;3.33;;;;;;;;;;5072826;28;20212;-28
2022/10/19 09:35:20;;;;;;;4.87;3.20;;;;;;;;;;5064413;28;20217;-28
2022/10/19 09:37:49;;;;;;;4.27;3.30;;;;;;;;;;5070396;28;20234;-33
2022/10/19 09:40:17;;;;;;;3.87;3.23;;;;;;;;;;5068876;28;20574;-29
2022/10/19 09:42:45;;;;;;;4.77;3.07;;;;;;;;;;5062113;28;20210;-31
2022/10/19 09:45:17;;;;;;;3.80;3.40;;;;;;;;;;5068793;28;20215;-31
2022/10/19 09:47:46;;;;;;;3.90;3.50;;;;;;;;;;5071302;28;20226;-31
2022/10/19 09:50:21;;;;;;;4.57;3.27;;;;;;;;;;5071767;28;20307;-30
2022/10/19 09:52:48;;;;;;;6.87;4.10;;;;;;;;;;5077161;28;20212;-31
2022/10/19 09:55:23;;;;;;;4.73;3.43;;;;;;;;;;5069960;28;20229;-34
2022/10/19 09:57:50;;;;;;;5.73;3.10;;;;;;;;;;5066932;28;20198;-30
2022/10/19 10:00:20;;;;;;;4.03;2.83;;;;;;;;;;5079172;28;20229;-29
2022/10/19 10:02:51;;;;;;;4.03;3.23;;;;;;;;;;5075846;28;20206;-32
2022/10/19 10:05:19;;;;;;;4.80;3.67;;;;;;;;;;5067515;28;20211;-35
2022/10/19 10:07:46;;;;;;;3.97;3.57;;;;;;;;;;5076482;28;20233;-29
2022/10/19 10:10:20;;;;;;;3.80;3.40;;;;;;;;;;5068906;28;20228;-29
2022/10/19 10:12:48;;;;;;;3.37;3.00;;;;;;;;;;5061740;28;20198;-32
2022/10/19 10:15:16;;;;;;;4.20;3.80;;;;;;;;;;5071997;28;20334;-28
2022/10/19 10:17:46;;;;;;;5.77;4.73;;;;;;;;;;5072529;28;20452;-28
2022/10/19 10:20:19;;;;;;;3.90;3.57;;;;;;;;;;5066762;28;20320;-36
2022/10/19 10:22:52;;;;;;;3.67;3.30;;;;;;;;;;5076087;28;20246;-31
2022/10/19 10:25:20;;;;;;;5.13;4.13;;;;;;;;;;5073869;28;20267;-31
2022/10/19 10:27:54;;;;;;;3.93;3.57;;;;;;;;;;5064743;28;20220;-33
2022/10/19 10:30:21;;;;;;;4.73;4.07;;;;;;;;;;5085163;28;20230;-32
2022/10/19 10:32:51;;;;;;;6.37;3.90;;;;;;;;;;5065771;28;20786;-32
2022/10/19 10:35:20;;;;;;;3.93;3.60;;;;;;;;;;5065149;28;20210;-32
2022/10/19 10:37:47;;;;;;;4.93;3.63;;;;;;;;;;5072667;28;20292;-29
2022/10/19 10:40:21;;;;;;;3.40;3.10;;;;;;;;;;5068069;28;20247;-28
2022/10/19 10:42:49;;;;;;;3.97;3.40;;;;;;;;;;5058692;28;20204;-34
2022/10/19 10:45:17;;;;;;;3.57;3.23;;;;;;;;;;5076814;28;20205;-29
2022/10/19 10:47:47;;;;;;;3.37;3.07;;;;;;;;;;5066381;28;20217;-29
2022/10/19 10:50:20;;;;;;;4.20;3.50;;;;;;;;;;5071377;28;20233;-31
2022/10/19 10:52:56;;;;;;;4.80;4.20;;;;;;;;;;5089700;28;20212;-33
2022/10/19 10:55:27;;;;;;;4.87;3.87;;;;;;;;;;5084678;28;20213;-29
2022/10/19 10:57:59;;;;;;;4.33;3.93;;;;;;;;;;5064278;28;20212;-32
2022/10/19 11:00:26;;;;;;;6.03;4.10;;;;;;;;;;5062935;28;20233;-30
2022/10/19 11:02:57;;;;;;;7.63;3.73;;;;;;;;;;5068018;28;20213;-31
2022/10/19 11:05:26;;;;;;;6.27;5.00;;;;;;;;;;5075803;28;20204;-30
2022/10/19 11:07:54;;;;;;;4.97;3.93;;;;;;;;;;5064319;28;20229;-28
2022/10/19 11:10:24;;;;;;;3.97;3.20;;;;;;;;;;5072827;28;20225;-33
2022/10/19 11:12:54;;;;;;;7.73;3.57;;;;;;;;;;5089855;28;20205;-32
2022/10/19 11:15:24;;;;;;;4.13;3.63;;;;;;;;;;5079818;28;20564;-32
2022/10/19 11:17:54;;;;;;;4.43;3.37;;;;;;;;;;5070403;28;20280;-32
2022/10/19 11:20:29;;;;;;;4.47;3.93;;;;;;;;;;5073578;28;20229;-32
2022/10/19 11:23:00;;;;;;;4.17;3.77;;;;;;;;;;5091592;28;20200;-33
2022/10/19 11:25:54;;;;;;;4.20;3.80;;;;;;;;;;5095716;28;20192;-30
2022/10/19 11:28:28;;;;;;;4.30;3.63;;;;;;;;;;5065693;28;20213;-30
2022/10/19 11:30:56;;;;;;;5.10;3.67;;;;;;;;;;5087461;28;20221;-30
2022/10/19 11:33:29;;;;;;;4.03;3.63;;;;;;;;;;5084134;28;20201;-31
2022/10/19 11:35:59;;;;;;;8.03;4.50;;;;;;;;;;5067705;28;20215;-30
2022/10/19 11:38:30;;;;;;;4.17;3.63;;;;;;;;;;5082560;28;20833;-31
2022/10/19 11:41:03;;;;;;;6.23;4.67;;;;;;;;;;5074281;28;20229;-32
2022/10/19 11:43:35;;;;;;;4.23;3.83;;;;;;;;;;5062947;28;20198;-31
2022/10/19 11:46:05;;;;;;;6.13;4.17;;;;;;;;;;5087469;28;20193;-31
2022/10/19 11:48:48;;;;;;;5.47;3.50;;;;;;;;;;5069474;28;20221;-31
2022/10/19 11:51:20;;;;;;;5.00;4.10;;;;;;;;;;5085988;28;20220;-32
2022/10/19 11:53:55;;;;;;;8.57;5.10;;;;;;;;;;5077638;28;20193;-31
2022/10/19 11:56:27;;;;;;;5.77;4.77;;;;;;;;;;5071938;28;20208;-31
2022/10/19 11:58:59;;;;;;;4.60;4.07;;;;;;;;;;5067057;28;20258;-33
2022/10/19 12:01:31;;;;;;;6.53;4.40;;;;;;;;;;5081642;28;20226;-34
2022/10/19 12:04:22;;;;;;;6.60;4.50;;;;;;;;;;5072194;28;20206;-29
2022/10/19 12:06:56;;;;;;;5.03;4.37;;;;;;;;;;5066570;28;20201;-34
2022/10/19 12:09:28;;;;;;;4.27;3.30;;;;;;;;;;5069754;28;20235;-34
2022/10/19 12:12:02;;;;;;;4.07;3.70;;;;;;;;;;5068136;28;20208;-31
2022/10/19 12:14:32;;;;;;;4.43;3.90;;;;;;;;;;5071598;28;20208;-31
2022/10/19 12:17:01;;;;;;;4.00;3.50;;;;;;;;;;5075783;28;20205;-30
2022/10/19 12:19:30;;;;;;;6.17;3.60;;;;;;;;;;5075764;28;20561;-32
2022/10/19 12:22:01;;;;;;;5.40;3.60;;;;;;;;;;5081331;28;20558;-33
2022/10/19 12:24:29;;;;;;;6.10;3.90;;;;;;;;;;5054135;28;20194;-31
2022/10/19 12:26:57;;;;;;;5.70;4.00;;;;;;;;;;5053774;28;20296;-30
2022/10/19 12:29:26;;;;;;;5.10;3.33;;;;;;;;;;5064533;28;20227;-32
2022/10/19 12:31:54;;;;;;;3.47;3.00;;;;;;;;;;5062147;28;20251;-31
2022/10/19 12:34:27;;;;;;;3.97;2.90;;;;;;;;;;5069752;28;20201;-35
2022/10/19 12:36:57;;;;;;;3.27;2.80;;;;;;;;;;5077652;28;20654;-32
2022/10/19 12:39:30;;;;;;;3.30;3.00;;;;;;;;;;5081678;28;20192;-34
2022/10/19 12:42:03;;;;;;;2.93;2.73;;;;;;;;;;5072753;28;20201;-32
2022/10/19 12:44:40;;;;;;;5.47;3.50;;;;;;;;;;5073874;28;20201;-32
2022/10/19 12:47:11;;;;;;;7.57;3.23;;;;;;;;;;5081630;28;20292;-32
2022/10/19 12:49:44;;;;;;;2.57;2.37;;;;;;;;;;5071737;28;20231;-30
2022/10/19 12:52:12;;;;;;;3.63;2.93;;;;;;;;;;5083202;28;20191;-33
2022/10/19 12:55:10;;;;;;;4.77;2.20;;;;;;;;;;5067016;28;20304;-31
2022/10/19 12:57:38;;;;;;;2.37;2.17;;;;;;;;;;5068254;28;20217;-32
2022/10/19 13:00:06;;;;;;;2.50;2.33;;;;;;;;;;5078635;28;20218;-32
2022/10/19 13:02:35;;;;;;;3.97;2.83;;;;;;;;;;5071173;28;20231;-34
2022/10/19 13:05:03;;;;;;;3.07;2.57;;;;;;;;;;5072126;28;20206;-32
2022/10/19 13:07:31;;;;;;;2.30;2.20;;;;;;;;;;5077376;28;20204;-32
2022/10/19 13:10:04;;;;;;;2.53;2.33;;;;;;;;;;5076394;28;20445;-33
2022/10/19 13:12:43;;;;;;;2.20;2.10;;;;;;;;;;5073606;28;20203;-32
2022/10/19 13:15:36;;;;;;;2.40;2.20;;;;;;;;;;5081902;28;20205;-36
2022/10/19 13:20:48;;;;;;;2.23;2.03;;;;;;;;;;5050185;28;20308;-39
2022/10/19 13:23:34;;;;;;;2.43;2.30;;;;;;;;;;5052378;28;20362;-34
2022/10/19 13:26:19;;;;;;;2.57;2.37;;;;;;;;;;5038052;28;20206;-40
2022/10/19 13:28:55;;;;;;;3.47;2.30;;;;;;;;;;5028119;28;20225;-36
2022/10/19 13:31:25;;;;;;;2.67;2.47;;;;;;;;;;5041203;28;20226;-37
2022/10/19 13:33:54;;;;;;;3.70;2.00;;;;;;;;;;5033665;28;20222;-35
2022/10/19 13:36:22;;;;;;;2.90;1.90;;;;;;;;;;5053589;28;20209;-44
2022/10/19 13:39:04;;;;;;;3.60;2.40;;;;;;;;;;5057841;28;20197;-41
2022/10/19 13:41:46;;;;;;;2.53;2.33;;;;;;;;;;5039421;28;20221;-42
2022/10/19 13:44:20;;;;;;;4.30;2.40;;;;;;;;;;5050843;28;20284;-40
2022/10/19 13:46:55;;;;;;;2.67;2.47;;;;;;;;;;5046838;28;20208;-37
2022/10/19 13:49:30;;;;;;;3.57;2.33;;;;;;;;;;5033355;28;20321;-41
2022/10/19 13:52:04;;;;;;;3.57;3.00;;;;;;;;;;5046932;28;20225;-34
2022/10/19 13:54:47;;;;;;;3.80;2.77;;;;;;;;;;5039626;28;20198;-40
2022/10/19 13:57:19;;;;;;;5.30;2.80;;;;;;;;;;5034510;28;20284;-36
2022/10/19 14:00:06;;;;;;;2.77;2.57;;;;;;;;;;5046631;28;20223;-39
2022/10/19 14:02:54;;;;;;;2.97;2.77;;;;;;;;;;5037329;28;20206;-39
2022/10/19 14:05:37;;;;;;;3.07;2.83;;;;;;;;;;5043214;28;20198;-36
2022/10/19 14:08:10;;;;;;;5.63;3.03;;;;;;;;;;5037857;28;20205;-41
2022/10/19 14:10:38;;;;;;;3.20;2.90;;;;;;;;;;5042174;28;20256;-35
2022/10/19 14:13:06;;;;;;;7.87;2.90;;;;;;;;;;5051646;28;20218;-39
2022/10/19 14:15:35;;;;;;;3.83;2.33;;;;;;;;;;5052467;28;20206;-40
2022/10/19 14:18:02;;;;;;;3.50;3.20;;;;;;;;;;5041512;28;20202;-37
2022/10/19 14:20:31;;;;;;;3.20;2.80;;;;;;;;;;5043928;28;20241;-35
2022/10/19 14:23:13;;;;;;;6.87;2.97;;;;;;;;;;5041165;28;20206;-39
2022/10/19 14:25:51;;;;;;;4.57;2.40;;;;;;;;;;5040242;28;20210;-43
2022/10/19 14:28:20;;;;;;;3.00;2.70;;;;;;;;;;5044181;28;20205;-38
2022/10/19 14:30:54;;;;;;;4.50;2.53;;;;;;;;;;5034827;28;20238;-42
2022/10/19 14:33:24;;;;;;;3.77;2.20;;;;;;;;;;5034290;28;20229;-35
2022/10/19 14:35:51;;;;;;;2.93;2.67;;;;;;;;;;5039816;28;20199;-37
2022/10/19 14:38:19;;;;;;;2.87;2.50;;;;;;;;;;5042753;28;20210;-33
2022/10/19 14:40:48;;;;;;;3.20;2.90;;;;;;;;;;5049909;28;20221;-42
2022/10/19 14:43:20;;;;;;;2.90;2.70;;;;;;;;;;5039655;28;20238;-40
2022/10/19 14:46:03;;;;;;;3.03;2.70;;;;;;;;;;5046272;28;20221;-37
2022/10/19 14:48:30;;;;;;;2.50;2.30;;;;;;;;;;5037722;28;20273;-41
2022/10/19 14:50:58;;;;;;;2.63;2.43;;;;;;;;;;5038975;28;20234;-37
2022/10/19 14:53:34;;;;;;;3.83;2.70;;;;;;;;;;5055832;28;20232;-34
2022/10/19 14:56:06;;;;;;;2.80;2.60;;;;;;;;;;5051667;28;20205;-33
2022/10/19 14:58:36;;;;;;;3.20;2.53;;;;;;;;;;5052835;28;20198;-41